sensor_id;sensor_type;location;lat;lon;timestamp;P1;durP1;ratioP1;P2;durP2;ratioP2
76125;SDS011;65174;48.138;21.002;2023-12-07T00:01:51;22.35;;;11.07;;
76125;SDS011;65174;48.138;21.002;2023-12-07T00:04:53;25.20;;;12.57;;
76125;SDS011;65174;48.138;21.002;2023-12-07T00:07:55;27.40;;;12.27;;
76125;SDS011;65174;48.138;21.002;2023-12-07T00:10:57;25.92;;;12.55;;
76125;SDS011;65174;48.138;21.002;2023-12-07T00:13:59;22.98;;;13.32;;
76125;SDS011;65174;48.138;21.002;2023-12-07T00:17:01;33.85;;;14.68;;
76125;SDS011;65174;48.138;21.002;2023-12-07T00:20:03;23.38;;;12.90;;
76125;SDS011;65174;48.138;21.002;2023-12-07T00:23:08;21.83;;;12.17;;
76125;SDS011;65174;48.138;21.002;2023-12-07T00:26:10;18.40;;;9.82;;
76125;SDS011;65174;48.138;21.002;2023-12-07T00:29:12;23.17;;;10.88;;
76125;SDS011;65174;48.138;21.002;2023-12-07T00:32:14;20.15;;;9.20;;
76125;SDS011;65174;48.138;21.002;2023-12-07T00:35:16;22.70;;;11.52;;
76125;SDS011;65174;48.138;21.002;2023-12-07T00:38:18;21.83;;;10.33;;
76125;SDS011;65174;48.138;21.002;2023-12-07T00:41:20;15.05;;;9.05;;
76125;SDS011;65174;48.138;21.002;2023-12-07T00:44:22;18.95;;;8.52;;
76125;SDS011;65174;48.138;21.002;2023-12-07T00:47:24;18.52;;;8.88;;
76125;SDS011;65174;48.138;21.002;2023-12-07T00:50:26;15.40;;;7.53;;
76125;SDS011;65174;48.138;21.002;2023-12-07T00:53:28;16.60;;;8.00;;
76125;SDS011;65174;48.138;21.002;2023-12-07T00:56:29;15.95;;;8.77;;
76125;SDS011;65174;48.138;21.002;2023-12-07T00:59:31;13.23;;;7.00;;
76125;SDS011;65174;48.138;21.002;2023-12-07T01:02:35;17.55;;;8.75;;
76125;SDS011;65174;48.138;21.002;2023-12-07T01:05:37;17.55;;;8.35;;
76125;SDS011;65174;48.138;21.002;2023-12-07T01:08:39;17.17;;;8.37;;
76125;SDS011;65174;48.138;21.002;2023-12-07T01:11:41;16.80;;;6.60;;
76125;SDS011;65174;48.138;21.002;2023-12-07T01:14:43;18.52;;;7.72;;
76125;SDS011;65174;48.138;21.002;2023-12-07T01:17:44;11.90;;;6.32;;
76125;SDS011;65174;48.138;21.002;2023-12-07T01:20:46;13.77;;;6.38;;
76125;SDS011;65174;48.138;21.002;2023-12-07T01:23:49;14.27;;;7.17;;
76125;SDS011;65174;48.138;21.002;2023-12-07T01:27:00;13.65;;;5.68;;
76125;SDS011;65174;48.138;21.002;2023-12-07T01:30:01;14.45;;;6.82;;
76125;SDS011;65174;48.138;21.002;2023-12-07T01:33:05;13.32;;;7.38;;
76125;SDS011;65174;48.138;21.002;2023-12-07T01:36:07;16.63;;;9.18;;
76125;SDS011;65174;48.138;21.002;2023-12-07T01:39:09;40.30;;;16.57;;
76125;SDS011;65174;48.138;21.002;2023-12-07T01:42:14;23.35;;;10.73;;
76125;SDS011;65174;48.138;21.002;2023-12-07T01:45:16;35.35;;;15.25;;
76125;SDS011;65174;48.138;21.002;2023-12-07T01:48:17;29.95;;;12.35;;
76125;SDS011;65174;48.138;21.002;2023-12-07T01:51:19;17.02;;;8.48;;
76125;SDS011;65174;48.138;21.002;2023-12-07T01:54:21;16.70;;;7.30;;
76125;SDS011;65174;48.138;21.002;2023-12-07T01:57:23;18.58;;;8.07;;
76125;SDS011;65174;48.138;21.002;2023-12-07T02:00:26;15.55;;;7.72;;
76125;SDS011;65174;48.138;21.002;2023-12-07T02:03:29;17.65;;;8.93;;
76125;SDS011;65174;48.138;21.002;2023-12-07T02:06:32;18.23;;;9.02;;
76125;SDS011;65174;48.138;21.002;2023-12-07T02:09:34;19.97;;;8.30;;
76125;SDS011;65174;48.138;21.002;2023-12-07T02:12:35;18.33;;;7.65;;
76125;SDS011;65174;48.138;21.002;2023-12-07T02:15:37;12.27;;;6.18;;
76125;SDS011;65174;48.138;21.002;2023-12-07T02:18:44;11.13;;;6.38;;
76125;SDS011;65174;48.138;21.002;2023-12-07T02:21:56;13.98;;;6.63;;
76125;SDS011;65174;48.138;21.002;2023-12-07T02:28:05;11.10;;;6.20;;
76125;SDS011;65174;48.138;21.002;2023-12-07T02:31:07;9.68;;;5.85;;
76125;SDS011;65174;48.138;21.002;2023-12-07T02:34:09;10.73;;;6.10;;
76125;SDS011;65174;48.138;21.002;2023-12-07T02:37:11;12.60;;;5.95;;
76125;SDS011;65174;48.138;21.002;2023-12-07T02:40:16;11.43;;;6.60;;
76125;SDS011;65174;48.138;21.002;2023-12-07T02:43:19;13.13;;;6.60;;
76125;SDS011;65174;48.138;21.002;2023-12-07T02:46:21;12.63;;;7.30;;
76125;SDS011;65174;48.138;21.002;2023-12-07T02:49:23;15.73;;;7.60;;
76125;SDS011;65174;48.138;21.002;2023-12-07T02:52:25;13.35;;;7.32;;
76125;SDS011;65174;48.138;21.002;2023-12-07T02:55:28;12.83;;;7.27;;
76125;SDS011;65174;48.138;21.002;2023-12-07T02:58:30;14.50;;;7.53;;
76125;SDS011;65174;48.138;21.002;2023-12-07T03:01:32;14.57;;;7.38;;
76125;SDS011;65174;48.138;21.002;2023-12-07T03:04:34;14.25;;;7.28;;
76125;SDS011;65174;48.138;21.002;2023-12-07T03:07:35;11.93;;;6.45;;
76125;SDS011;65174;48.138;21.002;2023-12-07T03:10:37;15.53;;;7.57;;
76125;SDS011;65174;48.138;21.002;2023-12-07T03:13:39;18.60;;;7.97;;
76125;SDS011;65174;48.138;21.002;2023-12-07T03:16:41;14.55;;;7.05;;
76125;SDS011;65174;48.138;21.002;2023-12-07T03:19:43;13.35;;;6.88;;
76125;SDS011;65174;48.138;21.002;2023-12-07T03:22:45;14.88;;;7.38;;
76125;SDS011;65174;48.138;21.002;2023-12-07T03:25:47;14.33;;;6.80;;
76125;SDS011;65174;48.138;21.002;2023-12-07T03:28:49;14.32;;;7.53;;
76125;SDS011;65174;48.138;21.002;2023-12-07T03:31:50;18.52;;;7.30;;
76125;SDS011;65174;48.138;21.002;2023-12-07T03:34:52;19.45;;;7.88;;
76125;SDS011;65174;48.138;21.002;2023-12-07T03:37:54;20.67;;;7.65;;
76125;SDS011;65174;48.138;21.002;2023-12-07T03:40:56;17.53;;;9.27;;
76125;SDS011;65174;48.138;21.002;2023-12-07T03:43:58;17.88;;;8.75;;
76125;SDS011;65174;48.138;21.002;2023-12-07T03:47:00;14.07;;;7.93;;
76125;SDS011;65174;48.138;21.002;2023-12-07T03:50:02;21.08;;;9.55;;
76125;SDS011;65174;48.138;21.002;2023-12-07T03:53:04;17.75;;;9.45;;
76125;SDS011;65174;48.138;21.002;2023-12-07T03:56:06;17.27;;;8.97;;
76125;SDS011;65174;48.138;21.002;2023-12-07T03:59:08;22.63;;;9.18;;
76125;SDS011;65174;48.138;21.002;2023-12-07T04:02:10;26.90;;;8.75;;
76125;SDS011;65174;48.138;21.002;2023-12-07T04:05:12;19.85;;;8.05;;
76125;SDS011;65174;48.138;21.002;2023-12-07T04:08:14;14.45;;;9.25;;
76125;SDS011;65174;48.138;21.002;2023-12-07T04:11:16;26.10;;;9.00;;
76125;SDS011;65174;48.138;21.002;2023-12-07T04:14:18;23.73;;;8.40;;
76125;SDS011;65174;48.138;21.002;2023-12-07T04:17:20;18.70;;;8.00;;
76125;SDS011;65174;48.138;21.002;2023-12-07T04:20:23;25.75;;;10.23;;
76125;SDS011;65174;48.138;21.002;2023-12-07T04:23:24;24.15;;;8.63;;
76125;SDS011;65174;48.138;21.002;2023-12-07T04:26:26;16.83;;;6.97;;
76125;SDS011;65174;48.138;21.002;2023-12-07T04:29:28;17.95;;;7.75;;
76125;SDS011;65174;48.138;21.002;2023-12-07T04:32:30;26.50;;;10.30;;
76125;SDS011;65174;48.138;21.002;2023-12-07T04:35:33;35.67;;;9.52;;
76125;SDS011;65174;48.138;21.002;2023-12-07T04:38:35;39.08;;;9.43;;
76125;SDS011;65174;48.138;21.002;2023-12-07T04:41:37;24.83;;;8.80;;
76125;SDS011;65174;48.138;21.002;2023-12-07T04:44:39;16.55;;;8.52;;
76125;SDS011;65174;48.138;21.002;2023-12-07T04:47:41;39.80;;;8.43;;
76125;SDS011;65174;48.138;21.002;2023-12-07T04:50:43;29.13;;;9.25;;
76125;SDS011;65174;48.138;21.002;2023-12-07T04:53:45;42.33;;;9.40;;
76125;SDS011;65174;48.138;21.002;2023-12-07T04:57:10;47.63;;;11.47;;
76125;SDS011;65174;48.138;21.002;2023-12-07T05:00:17;23.02;;;9.70;;
76125;SDS011;65174;48.138;21.002;2023-12-07T05:03:24;40.45;;;11.07;;
76125;SDS011;65174;48.138;21.002;2023-12-07T05:06:31;61.83;;;10.10;;
76125;SDS011;65174;48.138;21.002;2023-12-07T05:09:39;23.77;;;9.95;;
76125;SDS011;65174;48.138;21.002;2023-12-07T05:12:46;25.27;;;9.70;;
76125;SDS011;65174;48.138;21.002;2023-12-07T05:15:54;41.25;;;11.77;;
76125;SDS011;65174;48.138;21.002;2023-12-07T05:19:01;44.53;;;12.45;;
76125;SDS011;65174;48.138;21.002;2023-12-07T05:22:09;22.40;;;10.70;;
76125;SDS011;65174;48.138;21.002;2023-12-07T05:25:16;26.08;;;11.07;;
76125;SDS011;65174;48.138;21.002;2023-12-07T05:28:23;41.97;;;11.87;;
76125;SDS011;65174;48.138;21.002;2023-12-07T05:31:25;22.38;;;11.02;;
76125;SDS011;65174;48.138;21.002;2023-12-07T05:34:27;25.30;;;8.93;;
76125;SDS011;65174;48.138;21.002;2023-12-07T05:37:29;42.22;;;12.15;;
76125;SDS011;65174;48.138;21.002;2023-12-07T05:40:31;24.30;;;10.85;;
76125;SDS011;65174;48.138;21.002;2023-12-07T05:43:33;49.73;;;11.87;;
76125;SDS011;65174;48.138;21.002;2023-12-07T05:46:35;48.03;;;9.80;;
76125;SDS011;65174;48.138;21.002;2023-12-07T05:49:37;29.92;;;9.23;;
76125;SDS011;65174;48.138;21.002;2023-12-07T05:52:39;14.43;;;8.27;;
76125;SDS011;65174;48.138;21.002;2023-12-07T05:55:41;36.30;;;10.20;;
76125;SDS011;65174;48.138;21.002;2023-12-07T05:58:43;39.73;;;9.47;;
76125;SDS011;65174;48.138;21.002;2023-12-07T06:01:45;37.03;;;9.77;;
76125;SDS011;65174;48.138;21.002;2023-12-07T06:04:47;46.85;;;10.32;;
76125;SDS011;65174;48.138;21.002;2023-12-07T06:07:49;37.40;;;9.43;;
76125;SDS011;65174;48.138;21.002;2023-12-07T06:10:51;44.67;;;11.15;;
76125;SDS011;65174;48.138;21.002;2023-12-07T06:13:53;36.80;;;11.20;;
76125;SDS011;65174;48.138;21.002;2023-12-07T06:16:56;41.47;;;12.02;;
76125;SDS011;65174;48.138;21.002;2023-12-07T06:20:00;17.98;;;11.57;;
76125;SDS011;65174;48.138;21.002;2023-12-07T06:23:02;22.52;;;10.55;;
76125;SDS011;65174;48.138;21.002;2023-12-07T06:26:05;29.40;;;11.85;;
76125;SDS011;65174;48.138;21.002;2023-12-07T06:29:08;27.83;;;10.20;;
76125;SDS011;65174;48.138;21.002;2023-12-07T06:32:09;35.60;;;11.30;;
76125;SDS011;65174;48.138;21.002;2023-12-07T06:35:11;26.35;;;12.32;;
76125;SDS011;65174;48.138;21.002;2023-12-07T06:38:14;23.77;;;13.00;;
76125;SDS011;65174;48.138;21.002;2023-12-07T06:41:15;22.45;;;11.68;;
76125;SDS011;65174;48.138;21.002;2023-12-07T06:44:17;38.30;;;12.70;;
76125;SDS011;65174;48.138;21.002;2023-12-07T06:47:19;22.25;;;10.35;;
76125;SDS011;65174;48.138;21.002;2023-12-07T06:50:21;29.50;;;11.35;;
76125;SDS011;65174;48.138;21.002;2023-12-07T06:53:23;36.58;;;12.05;;
76125;SDS011;65174;48.138;21.002;2023-12-07T06:56:25;57.10;;;13.52;;
76125;SDS011;65174;48.138;21.002;2023-12-07T06:59:27;28.73;;;11.80;;
76125;SDS011;65174;48.138;21.002;2023-12-07T07:02:30;31.70;;;11.10;;
76125;SDS011;65174;48.138;21.002;2023-12-07T07:05:31;56.53;;;13.07;;
76125;SDS011;65174;48.138;21.002;2023-12-07T07:08:33;53.45;;;13.80;;
76125;SDS011;65174;48.138;21.002;2023-12-07T07:11:35;62.83;;;13.32;;
76125;SDS011;65174;48.138;21.002;2023-12-07T07:14:38;41.10;;;11.37;;
76125;SDS011;65174;48.138;21.002;2023-12-07T07:17:40;39.85;;;12.15;;
76125;SDS011;65174;48.138;21.002;2023-12-07T07:20:42;52.45;;;13.52;;
76125;SDS011;65174;48.138;21.002;2023-12-07T07:23:45;34.78;;;10.55;;
76125;SDS011;65174;48.138;21.002;2023-12-07T07:26:48;45.15;;;9.80;;
76125;SDS011;65174;48.138;21.002;2023-12-07T07:29:50;36.17;;;10.27;;
76125;SDS011;65174;48.138;21.002;2023-12-07T07:32:52;30.80;;;10.70;;
76125;SDS011;65174;48.138;21.002;2023-12-07T07:35:54;37.10;;;11.35;;
76125;SDS011;65174;48.138;21.002;2023-12-07T07:38:59;51.28;;;9.52;;
76125;SDS011;65174;48.138;21.002;2023-12-07T07:42:01;28.70;;;8.57;;
76125;SDS011;65174;48.138;21.002;2023-12-07T07:45:04;40.87;;;8.30;;
76125;SDS011;65174;48.138;21.002;2023-12-07T07:48:07;40.55;;;9.70;;
76125;SDS011;65174;48.138;21.002;2023-12-07T07:51:09;24.67;;;8.85;;
76125;SDS011;65174;48.138;21.002;2023-12-07T07:55:39;20.55;;;6.30;;
76125;SDS011;65174;48.138;21.002;2023-12-07T09:34:28;54.22;;;8.77;;
76125;SDS011;65174;48.138;21.002;2023-12-07T09:37:30;35.80;;;11.70;;
76125;SDS011;65174;48.138;21.002;2023-12-07T09:40:32;47.47;;;11.03;;
76125;SDS011;65174;48.138;21.002;2023-12-07T09:43:34;74.53;;;11.93;;
76125;SDS011;65174;48.138;21.002;2023-12-07T09:46:36;30.15;;;10.00;;
76125;SDS011;65174;48.138;21.002;2023-12-07T09:49:38;75.72;;;12.80;;
76125;SDS011;65174;48.138;21.002;2023-12-07T09:52:40;91.53;;;11.35;;
76125;SDS011;65174;48.138;21.002;2023-12-07T09:55:54;27.17;;;10.00;;
76125;SDS011;65174;48.138;21.002;2023-12-07T09:58:56;24.08;;;7.28;;
76125;SDS011;65174;48.138;21.002;2023-12-07T10:02:00;40.88;;;10.23;;
76125;SDS011;65174;48.138;21.002;2023-12-07T10:05:05;48.85;;;8.98;;
76125;SDS011;65174;48.138;21.002;2023-12-07T10:08:15;56.40;;;9.85;;
76125;SDS011;65174;48.138;21.002;2023-12-07T10:11:32;60.87;;;9.53;;
76125;SDS011;65174;48.138;21.002;2023-12-07T10:14:39;38.17;;;7.93;;
76125;SDS011;65174;48.138;21.002;2023-12-07T10:20:52;55.55;;;8.30;;
76125;SDS011;65174;48.138;21.002;2023-12-07T10:23:54;26.17;;;7.32;;
76125;SDS011;65174;48.138;21.002;2023-12-07T10:26:56;24.70;;;6.03;;
76125;SDS011;65174;48.138;21.002;2023-12-07T10:30:05;36.80;;;6.22;;
76125;SDS011;65174;48.138;21.002;2023-12-07T10:33:08;37.63;;;7.22;;
76125;SDS011;65174;48.138;21.002;2023-12-07T10:36:10;43.67;;;6.80;;
76125;SDS011;65174;48.138;21.002;2023-12-07T10:39:13;51.20;;;6.85;;
76125;SDS011;65174;48.138;21.002;2023-12-07T10:42:22;19.20;;;5.87;;
76125;SDS011;65174;48.138;21.002;2023-12-07T10:45:25;61.30;;;7.75;;
76125;SDS011;65174;48.138;21.002;2023-12-07T10:48:30;37.13;;;6.40;;
76125;SDS011;65174;48.138;21.002;2023-12-07T10:51:49;36.65;;;7.20;;
76125;SDS011;65174;48.138;21.002;2023-12-07T10:58:01;40.17;;;7.33;;
76125;SDS011;65174;48.138;21.002;2023-12-07T11:04:58;35.80;;;8.48;;
76125;SDS011;65174;48.138;21.002;2023-12-07T11:14:10;17.83;;;8.27;;
76125;SDS011;65174;48.138;21.002;2023-12-07T11:17:14;31.25;;;10.38;;
76125;SDS011;65174;48.138;21.002;2023-12-07T11:20:20;22.48;;;9.77;;
76125;SDS011;65174;48.138;21.002;2023-12-07T11:23:22;23.90;;;9.70;;
76125;SDS011;65174;48.138;21.002;2023-12-07T11:26:24;17.35;;;9.43;;
76125;SDS011;65174;48.138;21.002;2023-12-07T11:29:30;23.53;;;10.47;;
76125;SDS011;65174;48.138;21.002;2023-12-07T11:32:32;21.10;;;10.30;;
76125;SDS011;65174;48.138;21.002;2023-12-07T11:35:34;26.38;;;10.20;;
76125;SDS011;65174;48.138;21.002;2023-12-07T11:42:11;23.92;;;10.88;;
76125;SDS011;65174;48.138;21.002;2023-12-07T11:45:13;27.97;;;11.63;;
76125;SDS011;65174;48.138;21.002;2023-12-07T11:48:15;28.33;;;12.63;;
76125;SDS011;65174;48.138;21.002;2023-12-07T11:51:19;36.55;;;17.10;;
76125;SDS011;65174;48.138;21.002;2023-12-07T11:54:25;29.05;;;15.20;;
76125;SDS011;65174;48.138;21.002;2023-12-07T11:57:27;36.17;;;15.05;;
76125;SDS011;65174;48.138;21.002;2023-12-07T12:00:29;41.50;;;20.77;;
76125;SDS011;65174;48.138;21.002;2023-12-07T12:03:31;40.25;;;18.55;;
76125;SDS011;65174;48.138;21.002;2023-12-07T12:06:36;29.00;;;14.43;;
76125;SDS011;65174;48.138;21.002;2023-12-07T12:09:38;37.47;;;16.40;;
76125;SDS011;65174;48.138;21.002;2023-12-07T12:12:41;43.13;;;19.65;;
76125;SDS011;65174;48.138;21.002;2023-12-07T12:15:43;55.63;;;25.10;;
76125;SDS011;65174;48.138;21.002;2023-12-07T12:18:45;35.00;;;15.70;;
76125;SDS011;65174;48.138;21.002;2023-12-07T12:21:47;35.38;;;16.35;;
76125;SDS011;65174;48.138;21.002;2023-12-07T12:24:49;36.20;;;15.38;;
76125;SDS011;65174;48.138;21.002;2023-12-07T12:31:23;39.73;;;18.23;;
76125;SDS011;65174;48.138;21.002;2023-12-07T12:34:25;38.47;;;17.17;;
76125;SDS011;65174;48.138;21.002;2023-12-07T12:37:27;32.88;;;14.43;;
76125;SDS011;65174;48.138;21.002;2023-12-07T12:40:34;30.05;;;14.77;;
76125;SDS011;65174;48.138;21.002;2023-12-07T12:43:35;36.17;;;16.50;;
76125;SDS011;65174;48.138;21.002;2023-12-07T12:46:37;27.27;;;13.60;;
76125;SDS011;65174;48.138;21.002;2023-12-07T12:49:40;36.90;;;15.57;;
76125;SDS011;65174;48.138;21.002;2023-12-07T12:52:43;35.65;;;17.05;;
76125;SDS011;65174;48.138;21.002;2023-12-07T12:55:45;32.65;;;14.32;;
76125;SDS011;65174;48.138;21.002;2023-12-07T12:58:49;34.72;;;14.27;;
76125;SDS011;65174;48.138;21.002;2023-12-07T13:01:51;27.67;;;13.10;;
76125;SDS011;65174;48.138;21.002;2023-12-07T13:04:53;33.05;;;15.23;;
76125;SDS011;65174;48.138;21.002;2023-12-07T13:07:57;29.48;;;12.85;;
76125;SDS011;65174;48.138;21.002;2023-12-07T13:11:15;28.35;;;13.90;;
76125;SDS011;65174;48.138;21.002;2023-12-07T13:14:17;31.40;;;13.02;;
76125;SDS011;65174;48.138;21.002;2023-12-07T13:17:20;34.23;;;12.87;;
76125;SDS011;65174;48.138;21.002;2023-12-07T13:20:22;28.45;;;13.20;;
76125;SDS011;65174;48.138;21.002;2023-12-07T13:23:25;30.05;;;13.35;;
76125;SDS011;65174;48.138;21.002;2023-12-07T13:26:27;36.70;;;15.60;;
76125;SDS011;65174;48.138;21.002;2023-12-07T13:29:29;32.47;;;13.50;;
76125;SDS011;65174;48.138;21.002;2023-12-07T13:32:37;27.17;;;12.80;;
76125;SDS011;65174;48.138;21.002;2023-12-07T13:35:39;26.00;;;13.02;;
76125;SDS011;65174;48.138;21.002;2023-12-07T13:38:41;29.83;;;12.55;;
76125;SDS011;65174;48.138;21.002;2023-12-07T13:41:43;35.72;;;14.43;;
76125;SDS011;65174;48.138;21.002;2023-12-07T13:44:45;26.67;;;13.50;;
76125;SDS011;65174;48.138;21.002;2023-12-07T13:47:47;36.33;;;12.87;;
76125;SDS011;65174;48.138;21.002;2023-12-07T13:50:49;26.58;;;12.43;;
76125;SDS011;65174;48.138;21.002;2023-12-07T13:53:51;34.35;;;15.55;;
76125;SDS011;65174;48.138;21.002;2023-12-07T13:57:01;34.67;;;14.85;;
76125;SDS011;65174;48.138;21.002;2023-12-07T14:00:05;31.20;;;14.32;;
76125;SDS011;65174;48.138;21.002;2023-12-07T14:03:07;30.17;;;13.40;;
76125;SDS011;65174;48.138;21.002;2023-12-07T14:06:09;28.58;;;11.52;;
76125;SDS011;65174;48.138;21.002;2023-12-07T14:09:22;21.75;;;10.57;;
76125;SDS011;65174;48.138;21.002;2023-12-07T14:12:24;29.40;;;12.25;;
76125;SDS011;65174;48.138;21.002;2023-12-07T14:15:26;27.60;;;13.18;;
76125;SDS011;65174;48.138;21.002;2023-12-07T14:18:45;34.03;;;14.47;;
76125;SDS011;65174;48.138;21.002;2023-12-07T14:22:05;30.55;;;14.05;;
76125;SDS011;65174;48.138;21.002;2023-12-07T14:25:07;30.30;;;13.95;;
76125;SDS011;65174;48.138;21.002;2023-12-07T14:28:10;27.25;;;13.85;;
76125;SDS011;65174;48.138;21.002;2023-12-07T14:31:12;31.05;;;16.58;;
76125;SDS011;65174;48.138;21.002;2023-12-07T14:34:18;32.07;;;14.53;;
76125;SDS011;65174;48.138;21.002;2023-12-07T14:37:31;53.13;;;23.10;;
76125;SDS011;65174;48.138;21.002;2023-12-07T14:40:33;54.40;;;25.20;;
76125;SDS011;65174;48.138;21.002;2023-12-07T14:43:36;57.13;;;26.75;;
76125;SDS011;65174;48.138;21.002;2023-12-07T14:46:38;38.38;;;17.65;;
76125;SDS011;65174;48.138;21.002;2023-12-07T14:49:40;26.43;;;13.03;;
76125;SDS011;65174;48.138;21.002;2023-12-07T14:52:42;27.27;;;12.40;;
76125;SDS011;65174;48.138;21.002;2023-12-07T14:55:45;29.02;;;13.77;;
76125;SDS011;65174;48.138;21.002;2023-12-07T14:58:47;26.98;;;11.48;;
76125;SDS011;65174;48.138;21.002;2023-12-07T15:01:48;26.80;;;11.57;;
76125;SDS011;65174;48.138;21.002;2023-12-07T15:04:52;24.83;;;12.13;;
76125;SDS011;65174;48.138;21.002;2023-12-07T15:07:54;26.73;;;12.38;;
76125;SDS011;65174;48.138;21.002;2023-12-07T15:10:56;26.02;;;13.13;;
76125;SDS011;65174;48.138;21.002;2023-12-07T15:13:58;37.17;;;18.30;;
76125;SDS011;65174;48.138;21.002;2023-12-07T15:16:59;28.98;;;14.82;;
76125;SDS011;65174;48.138;21.002;2023-12-07T15:20:01;28.33;;;11.40;;
76125;SDS011;65174;48.138;21.002;2023-12-07T15:23:05;28.70;;;13.38;;
76125;SDS011;65174;48.138;21.002;2023-12-07T15:26:07;23.73;;;11.13;;
76125;SDS011;65174;48.138;21.002;2023-12-07T15:29:10;20.70;;;10.80;;
76125;SDS011;65174;48.138;21.002;2023-12-07T15:32:12;23.95;;;12.65;;
76125;SDS011;65174;48.138;21.002;2023-12-07T15:35:13;23.83;;;11.30;;
76125;SDS011;65174;48.138;21.002;2023-12-07T15:38:15;30.42;;;15.38;;
76125;SDS011;65174;48.138;21.002;2023-12-07T15:41:17;43.95;;;20.73;;
76125;SDS011;65174;48.138;21.002;2023-12-07T15:44:19;60.38;;;23.75;;
76125;SDS011;65174;48.138;21.002;2023-12-07T15:47:23;47.00;;;19.42;;
76125;SDS011;65174;48.138;21.002;2023-12-07T15:50:25;34.23;;;15.40;;
76125;SDS011;65174;48.138;21.002;2023-12-07T15:53:27;28.10;;;14.15;;
76125;SDS011;65174;48.138;21.002;2023-12-07T15:56:29;28.27;;;15.07;;
76125;SDS011;65174;48.138;21.002;2023-12-07T15:59:33;29.05;;;15.45;;
76125;SDS011;65174;48.138;21.002;2023-12-07T16:02:35;30.23;;;15.23;;
76125;SDS011;65174;48.138;21.002;2023-12-07T16:05:39;29.27;;;15.33;;
76125;SDS011;65174;48.138;21.002;2023-12-07T16:08:41;33.70;;;16.77;;
76125;SDS011;65174;48.138;21.002;2023-12-07T16:11:43;36.50;;;17.77;;
76125;SDS011;65174;48.138;21.002;2023-12-07T16:14:45;33.13;;;18.25;;
76125;SDS011;65174;48.138;21.002;2023-12-07T16:17:47;34.03;;;17.15;;
76125;SDS011;65174;48.138;21.002;2023-12-07T16:20:49;32.43;;;16.47;;
76125;SDS011;65174;48.138;21.002;2023-12-07T16:23:51;28.42;;;14.90;;
76125;SDS011;65174;48.138;21.002;2023-12-07T16:26:53;37.15;;;16.33;;
76125;SDS011;65174;48.138;21.002;2023-12-07T16:29:55;43.08;;;19.38;;
76125;SDS011;65174;48.138;21.002;2023-12-07T16:32:57;36.72;;;17.85;;
76125;SDS011;65174;48.138;21.002;2023-12-07T16:35:59;55.03;;;22.63;;
76125;SDS011;65174;48.138;21.002;2023-12-07T16:39:11;35.80;;;16.02;;
76125;SDS011;65174;48.138;21.002;2023-12-07T16:42:12;28.40;;;16.40;;
76125;SDS011;65174;48.138;21.002;2023-12-07T16:45:14;30.23;;;15.18;;
76125;SDS011;65174;48.138;21.002;2023-12-07T16:48:17;33.28;;;15.10;;
76125;SDS011;65174;48.138;21.002;2023-12-07T16:51:19;50.57;;;23.93;;
76125;SDS011;65174;48.138;21.002;2023-12-07T16:54:21;46.75;;;24.17;;
76125;SDS011;65174;48.138;21.002;2023-12-07T16:57:23;25.40;;;12.57;;
76125;SDS011;65174;48.138;21.002;2023-12-07T17:00:25;23.55;;;13.25;;
76125;SDS011;65174;48.138;21.002;2023-12-07T17:03:27;28.42;;;16.05;;
76125;SDS011;65174;48.138;21.002;2023-12-07T17:06:29;25.33;;;12.40;;
76125;SDS011;65174;48.138;21.002;2023-12-07T17:09:35;25.73;;;13.35;;
76125;SDS011;65174;48.138;21.002;2023-12-07T17:12:37;22.75;;;12.70;;
76125;SDS011;65174;48.138;21.002;2023-12-07T17:15:39;31.15;;;12.95;;
76125;SDS011;65174;48.138;21.002;2023-12-07T17:18:41;31.90;;;15.20;;
76125;SDS011;65174;48.138;21.002;2023-12-07T17:21:43;39.73;;;13.93;;
76125;SDS011;65174;48.138;21.002;2023-12-07T17:24:45;29.95;;;14.25;;
76125;SDS011;65174;48.138;21.002;2023-12-07T17:27:47;26.95;;;13.98;;
76125;SDS011;65174;48.138;21.002;2023-12-07T17:30:49;31.98;;;15.35;;
76125;SDS011;65174;48.138;21.002;2023-12-07T17:33:51;31.80;;;15.82;;
76125;SDS011;65174;48.138;21.002;2023-12-07T17:36:54;28.67;;;14.73;;
76125;SDS011;65174;48.138;21.002;2023-12-07T17:39:55;29.35;;;16.13;;
76125;SDS011;65174;48.138;21.002;2023-12-07T17:42:59;31.92;;;16.80;;
76125;SDS011;65174;48.138;21.002;2023-12-07T17:46:01;32.25;;;16.30;;
76125;SDS011;65174;48.138;21.002;2023-12-07T17:49:03;40.20;;;17.17;;
76125;SDS011;65174;48.138;21.002;2023-12-07T17:52:05;34.17;;;17.60;;
76125;SDS011;65174;48.138;21.002;2023-12-07T17:55:07;30.60;;;15.77;;
76125;SDS011;65174;48.138;21.002;2023-12-07T17:58:09;33.20;;;16.25;;
76125;SDS011;65174;48.138;21.002;2023-12-07T18:01:17;31.48;;;15.85;;
76125;SDS011;65174;48.138;21.002;2023-12-07T18:04:18;37.38;;;18.80;;
76125;SDS011;65174;48.138;21.002;2023-12-07T18:07:20;32.77;;;17.00;;
76125;SDS011;65174;48.138;21.002;2023-12-07T18:10:24;29.70;;;15.00;;
76125;SDS011;65174;48.138;21.002;2023-12-07T18:13:26;27.40;;;14.40;;
76125;SDS011;65174;48.138;21.002;2023-12-07T18:16:28;31.05;;;15.32;;
76125;SDS011;65174;48.138;21.002;2023-12-07T18:19:30;34.70;;;17.05;;
76125;SDS011;65174;48.138;21.002;2023-12-07T18:22:32;32.00;;;17.13;;
76125;SDS011;65174;48.138;21.002;2023-12-07T18:25:34;41.03;;;18.80;;
76125;SDS011;65174;48.138;21.002;2023-12-07T18:28:36;24.42;;;13.05;;
76125;SDS011;65174;48.138;21.002;2023-12-07T18:31:38;30.42;;;14.10;;
76125;SDS011;65174;48.138;21.002;2023-12-07T18:34:40;35.17;;;17.13;;
76125;SDS011;65174;48.138;21.002;2023-12-07T18:37:43;31.90;;;16.43;;
76125;SDS011;65174;48.138;21.002;2023-12-07T18:40:45;29.63;;;14.10;;
76125;SDS011;65174;48.138;21.002;2023-12-07T18:43:46;24.05;;;12.40;;
76125;SDS011;65174;48.138;21.002;2023-12-07T18:46:48;21.83;;;12.15;;
76125;SDS011;65174;48.138;21.002;2023-12-07T18:49:51;28.55;;;15.40;;
76125;SDS011;65174;48.138;21.002;2023-12-07T18:52:53;30.20;;;14.40;;
76125;SDS011;65174;48.138;21.002;2023-12-07T18:55:55;37.03;;;18.23;;
76125;SDS011;65174;48.138;21.002;2023-12-07T18:58:57;36.65;;;18.77;;
76125;SDS011;65174;48.138;21.002;2023-12-07T19:01:59;37.10;;;17.83;;
76125;SDS011;65174;48.138;21.002;2023-12-07T19:05:01;34.53;;;14.63;;
76125;SDS011;65174;48.138;21.002;2023-12-07T19:08:03;27.43;;;13.90;;
76125;SDS011;65174;48.138;21.002;2023-12-07T19:11:05;34.65;;;15.38;;
76125;SDS011;65174;48.138;21.002;2023-12-07T19:14:07;27.58;;;15.73;;
76125;SDS011;65174;48.138;21.002;2023-12-07T19:17:09;18.92;;;11.73;;
76125;SDS011;65174;48.138;21.002;2023-12-07T19:20:11;29.45;;;13.68;;
76125;SDS011;65174;48.138;21.002;2023-12-07T19:23:13;28.00;;;13.83;;
76125;SDS011;65174;48.138;21.002;2023-12-07T19:26:14;23.70;;;12.45;;
76125;SDS011;65174;48.138;21.002;2023-12-07T19:29:16;28.85;;;13.95;;
76125;SDS011;65174;48.138;21.002;2023-12-07T19:32:18;21.38;;;11.65;;
76125;SDS011;65174;48.138;21.002;2023-12-07T19:35:20;32.13;;;16.38;;
76125;SDS011;65174;48.138;21.002;2023-12-07T19:38:22;27.27;;;14.67;;
76125;SDS011;65174;48.138;21.002;2023-12-07T19:41:24;29.75;;;15.70;;
76125;SDS011;65174;48.138;21.002;2023-12-07T19:44:26;28.02;;;13.27;;